Marathon, FL (33050)

9:30 PM EST on February 11, 2016 (GMT -0500)
Sea Air Estates Sandy Ave | | Change Station
CLOSE
Current Station
Personal Weather Station
Location: Marathon, FL
Elevation: 37 ft
Nearby Weather Stations

Elev 37 ft 24.73 °N, 81.05 °W | Updated 47 seconds ago

Clear
Clear
62.8 °F
Feels Like 62.8 °F
N
10.9
Wind Variable Wind from NE

Today
High -- | Low -- °F
--% Chance of Precip.
Yesterday
High -- | Low -- °F
Precip. -- in
Pressure 30.30 in
Visibility 10.0 miles
Clouds Clear
Dew Point 54 °F
Humidity 74%
Rainfall 0.00 in
Snow Depth Not available.
7:00 AM 6:15 PM
Waxing Crescent, 16% visible
METAR KNQX 120153Z 03004KT 10SM CLR 15/10 A3030 RMK AO2 SLP258 T01500100 $
Pressure 30.30 in
Visibility 10.0 miles
Clouds Clear
Dew Point 54 °F
Humidity 74%
Rainfall 0.00 in
Snow Depth Not available.
7:00 AM 6:15 PM
Waxing Crescent, 16% visible
METAR KNQX 120153Z 03004KT 10SM CLR 15/10 A3030 RMK AO2 SLP258 T01500100 $

10-Day Weather Forecast

Almanac

Astronomy

Feb. 11, 2016 Rise Set
Actual Time
Civil Twilight
Nautical Twilight
Astronomical Twilight
Moon
Length of Visible Light
Length of Day
Tomorrow will be .
, % of the Moon is Illuminated

Today's Extremes

State Highs State Lows

Community

WunderPhotos

Upload Photos

1,892,226 photos uploaded!

WunderBlog® & News

Nearby

Air Quality

  Air Quality AQ Index Pollutant
Not available.

Snow Depth

Station Depth Elevation

Earthquake Activity

City Distance Mag. Time & Date
Minimum magnitude displayed is 2.5.

Coastal Water Temperatures

Place Temperature

Stations

Nearby Weather Stations

Station Location Temp. Windchill Dew Point Humidity Wind Precip. Elev Updated Type
                   

Watches & Warnings

There are currently no watches in effect.